Time;durP1;ratioP1;P1;durP2;ratioP2;P2;SDS_P1;SDS_P2;PMS_P1;PMS_P2;Temp;Humidity;BMP_temperature;BMP_pressure;BME280_temperature;BME280_humidity;BME280_pressure;Samples;Min_cycle;Max_cycle;Signal;HPM_P1;HPM_P2
2022/10/23 00:01:38;;;;;;;6.70;3.00;;;14.50;99.90;;;;;;5073235;28;20504;-79
2022/10/23 00:04:11;;;;;;;10.50;2.95;;;14.50;99.90;;;;;;5073147;28;20045;-78
2022/10/23 00:06:37;;;;;;;7.70;2.63;;;14.40;99.90;;;;;;5073135;28;20059;-79
2022/10/23 00:09:05;;;;;;;4.47;2.30;;;14.50;99.90;;;;;;5071820;28;20059;-79
2022/10/23 00:11:32;;;;;;;9.85;2.47;;;14.50;99.90;;;;;;5073235;28;20035;-80
2022/10/23 00:14:01;;;;;;;5.17;2.37;;;14.50;99.90;;;;;;5072254;28;20427;-81
2022/10/23 00:16:27;;;;;;;12.15;2.33;;;14.50;99.90;;;;;;5072972;28;20111;-80
2022/10/23 00:18:53;;;;;;;4.47;2.28;;;14.50;99.90;;;;;;5071922;28;20132;-81
2022/10/23 00:21:20;;;;;;;5.30;2.67;;;14.40;99.90;;;;;;5055002;28;20124;-81
2022/10/23 00:23:45;;;;;;;5.88;2.67;;;14.40;99.90;;;;;;5072808;28;20472;-79
2022/10/23 00:26:15;;;;;;;7.80;2.40;;;14.40;99.90;;;;;;5072055;28;20024;-78
2022/10/23 00:28:46;;;;;;;6.43;2.85;;;14.40;99.90;;;;;;5072912;28;20489;-79
2022/10/23 00:31:13;;;;;;;5.07;2.78;;;14.40;99.90;;;;;;5071734;28;20351;-80
2022/10/23 00:33:39;;;;;;;7.40;2.97;;;14.40;99.90;;;;;;5072763;28;20029;-78
2022/10/23 00:36:10;;;;;;;7.20;3.03;;;14.40;99.90;;;;;;5072532;28;20044;-79
2022/10/23 00:38:37;;;;;;;12.20;2.92;;;14.40;99.90;;;;;;5072634;28;20078;-78
2022/10/23 00:41:04;;;;;;;5.55;2.78;;;14.40;99.90;;;;;;5072039;28;20033;-77
2022/10/23 00:43:30;;;;;;;10.32;3.20;;;14.50;99.90;;;;;;5072532;28;20098;-78
2022/10/23 00:45:56;;;;;;;9.05;3.30;;;14.40;99.90;;;;;;5072283;28;20032;-79
2022/10/23 00:48:23;;;;;;;20.42;5.30;;;14.40;99.90;;;;;;5072578;28;20033;-77
2022/10/23 00:50:49;;;;;;;7.82;3.13;;;14.40;99.90;;;;;;5072319;28;20136;-78
2022/10/23 00:53:17;;;;;;;10.63;3.33;;;14.50;99.90;;;;;;5073230;28;20079;-78
2022/10/23 00:55:46;;;;;;;5.85;3.00;;;14.40;99.90;;;;;;5072400;28;20037;-78
2022/10/23 00:58:17;;;;;;;8.20;3.17;;;14.40;99.90;;;;;;5072259;28;20119;-80
2022/10/23 01:00:49;;;;;;;8.10;3.17;;;14.40;99.90;;;;;;5071049;28;20498;-80
2022/10/23 01:03:17;;;;;;;6.78;3.25;;;14.40;99.90;;;;;;5072138;28;20035;-80
2022/10/23 01:05:55;;;;;;;9.20;3.35;;;14.40;99.90;;;;;;5070953;28;20039;-77
2022/10/23 01:08:32;;;;;;;8.13;2.70;;;14.40;99.90;;;;;;5072542;28;20116;-76
2022/10/23 01:11:05;;;;;;;6.80;2.75;;;14.40;99.90;;;;;;5072179;28;20037;-78
2022/10/23 01:13:50;;;;;;;7.00;3.35;;;14.40;99.90;;;;;;5072317;28;20049;-79
2022/10/23 01:17:09;;;;;;;10.07;3.35;;;14.40;99.90;;;;;;5070910;28;20367;-77
2022/10/23 01:19:49;;;;;;;7.95;3.15;;;14.40;99.90;;;;;;5036678;28;20025;-78
2022/10/23 01:22:48;;;;;;;6.85;2.97;;;14.30;99.90;;;;;;5071770;28;20178;-78
2022/10/23 01:25:14;;;;;;;7.38;2.83;;;14.30;99.90;;;;;;5071560;28;20434;-78
2022/10/23 01:27:43;;;;;;;7.63;2.95;;;14.30;99.90;;;;;;5071491;28;20056;-77
2022/10/23 01:30:14;;;;;;;8.68;3.20;;;14.30;99.90;;;;;;5071577;28;20020;-76
2022/10/23 01:32:57;;;;;;;8.13;2.97;;;14.40;99.90;;;;;;5071853;28;20044;-80
2022/10/23 01:35:28;;;;;;;6.78;2.95;;;14.30;99.90;;;;;;5071978;28;20035;-81
2022/10/23 01:38:05;;;;;;;8.50;3.72;;;14.30;99.90;;;;;;5071807;28;20071;-79
2022/10/23 01:41:03;;;;;;;11.73;3.08;;;14.30;99.90;;;;;;5071657;28;20068;-79
2022/10/23 01:43:54;;;;;;;9.77;3.35;;;14.30;99.90;;;;;;5071377;28;20036;-78
2022/10/23 01:46:22;;;;;;;11.05;3.15;;;14.30;99.90;;;;;;5069981;28;20068;-79
2022/10/23 01:48:51;;;;;;;5.05;2.33;;;14.30;99.90;;;;;;5071596;28;20036;-79
2022/10/23 01:51:20;;;;;;;5.85;3.22;;;14.30;99.90;;;;;;5071252;28;20060;-78
2022/10/23 01:53:48;;;;;;;5.68;3.17;;;14.30;99.90;;;;;;5071117;28;20028;-80
2022/10/23 01:56:21;;;;;;;7.63;2.90;;;14.30;99.90;;;;;;5071723;28;20496;-80
2022/10/23 01:58:51;;;;;;;10.75;3.47;;;14.20;99.90;;;;;;5071319;28;20024;-79
2022/10/23 02:01:20;;;;;;;6.43;2.80;;;14.20;99.90;;;;;;5071153;28;20036;-80
2022/10/23 02:03:48;;;;;;;9.38;3.00;;;14.20;99.90;;;;;;5070136;28;20119;-83
2022/10/23 02:06:14;;;;;;;15.65;4.25;;;14.30;99.90;;;;;;5071049;28;20466;-79
2022/10/23 02:08:40;;;;;;;12.38;3.85;;;14.20;99.90;;;;;;5071066;28;20064;-79
2022/10/23 02:11:15;;;;;;;7.93;2.78;;;14.20;99.90;;;;;;5070395;28;20025;-79
2022/10/23 02:13:55;;;;;;;6.72;2.92;;;14.20;99.90;;;;;;5070657;28;20527;-80
2022/10/23 02:16:53;;;;;;;6.93;3.00;;;14.20;99.90;;;;;;5069913;28;20036;-81
2022/10/23 02:19:30;;;;;;;12.38;3.22;;;14.20;99.90;;;;;;5066244;28;20360;-79
2022/10/23 02:22:11;;;;;;;10.27;3.72;;;14.20;99.90;;;;;;5070885;28;20036;-79
2022/10/23 02:24:58;;;;;;;13.32;3.67;;;14.10;99.90;;;;;;5070868;28;20122;-78
2022/10/23 02:27:36;;;;;;;7.53;3.30;;;14.10;99.90;;;;;;5069848;28;20103;-79
2022/10/23 02:30:07;;;;;;;6.75;3.63;;;14.10;99.90;;;;;;5070751;28;20399;-78
2022/10/23 02:32:34;;;;;;;12.85;3.30;;;14.10;99.90;;;;;;5069898;28;20012;-79
2022/10/23 02:35:01;;;;;;;14.35;3.50;;;14.10;99.90;;;;;;5071125;28;20021;-80
2022/10/23 02:37:27;;;;;;;13.65;4.00;;;14.10;99.90;;;;;;5070796;28;20109;-81
2022/10/23 02:39:54;;;;;;;10.75;4.28;;;14.10;99.90;;;;;;5070616;28;20091;-81
2022/10/23 02:42:57;;;;;;;9.33;3.87;;;14.10;99.90;;;;;;5070922;28;20648;-81
2022/10/23 02:45:32;;;;;;;9.73;4.03;;;14.20;99.90;;;;;;5066977;28;20184;-79
2022/10/23 02:48:06;;;;;;;10.48;3.50;;;14.10;99.90;;;;;;5073567;28;20312;-80
2022/10/23 02:50:43;;;;;;;6.78;3.70;;;14.10;99.90;;;;;;5074358;28;20112;-79
2022/10/23 02:53:09;;;;;;;9.52;3.13;;;14.10;99.90;;;;;;5074551;28;20458;-80
2022/10/23 02:56:09;;;;;;;8.45;4.13;;;14.10;99.90;;;;;;5076126;28;20354;-81
2022/10/23 02:59:03;;;;;;;10.95;3.78;;;14.10;99.90;;;;;;5072561;28;20029;-79
2022/10/23 03:01:38;;;;;;;6.82;3.22;;;14.10;99.90;;;;;;5071086;28;20562;-79
2022/10/23 03:04:05;;;;;;;11.00;3.55;;;14.10;99.90;;;;;;5069959;28;20081;-79
2022/10/23 03:06:31;;;;;;;8.27;3.58;;;14.10;99.90;;;;;;5069135;28;20044;-79
2022/10/23 03:09:00;;;;;;;8.65;3.53;;;14.10;99.90;;;;;;5070126;28;20032;-80
2022/10/23 03:11:26;;;;;;;8.60;3.50;;;14.10;99.90;;;;;;5069572;28;20366;-79
2022/10/23 03:13:52;;;;;;;10.15;3.30;;;14.00;99.90;;;;;;5070158;28;20048;-82
2022/10/23 03:16:17;;;;;;;9.93;3.90;;;14.10;99.90;;;;;;5070369;28;20118;-79
2022/10/23 03:18:43;;;;;;;12.32;3.65;;;14.10;99.90;;;;;;5070046;28;20457;-81
2022/10/23 03:21:08;;;;;;;10.98;3.60;;;14.00;99.90;;;;;;5069001;28;20056;-79
2022/10/23 03:23:34;;;;;;;10.55;3.40;;;14.00;99.90;;;;;;5070735;28;20120;-79
2022/10/23 03:26:00;;;;;;;13.32;3.65;;;14.00;99.90;;;;;;5070596;28;20028;-81
2022/10/23 03:28:26;;;;;;;7.57;4.18;;;13.90;99.90;;;;;;5069103;28;20393;-82
2022/10/23 03:30:51;;;;;;;12.80;3.88;;;13.90;99.90;;;;;;5070174;28;20024;-81
2022/10/23 03:33:18;;;;;;;7.95;3.78;;;13.90;99.90;;;;;;5070091;28;20031;-80
2022/10/23 03:35:43;;;;;;;16.52;3.65;;;13.90;99.90;;;;;;5070007;28;20365;-80
2022/10/23 03:38:09;;;;;;;10.68;3.45;;;13.90;99.90;;;;;;5070761;28;20473;-81
2022/10/23 03:40:35;;;;;;;7.32;3.25;;;13.90;99.90;;;;;;5069980;28;20089;-81
2022/10/23 03:43:01;;;;;;;12.55;3.50;;;13.90;99.90;;;;;;5070133;28;20480;-80
2022/10/23 03:45:26;;;;;;;13.20;3.45;;;13.90;99.90;;;;;;5073484;28;20044;-80
2022/10/23 03:47:52;;;;;;;14.18;3.70;;;13.80;99.90;;;;;;5073624;28;20481;-79
2022/10/23 03:50:18;;;;;;;7.85;3.38;;;13.80;99.90;;;;;;5073046;28;20077;-79
2022/10/23 03:52:44;;;;;;;5.93;3.25;;;13.80;99.90;;;;;;5073536;28;20152;-80
2022/10/23 03:55:10;;;;;;;8.95;3.30;;;13.80;99.90;;;;;;5073620;28;20462;-78
2022/10/23 03:57:36;;;;;;;9.65;3.40;;;13.80;99.90;;;;;;5073320;28;20033;-79
2022/10/23 04:00:04;;;;;;;11.02;3.88;;;13.90;99.90;;;;;;5073480;28;20366;-79
2022/10/23 04:02:30;;;;;;;;;;;13.80;99.90;;;;;;5073826;28;20024;-78
2022/10/23 04:04:55;;;;;;;12.63;4.22;;;13.80;99.90;;;;;;5073687;28;20261;-80
2022/10/23 04:07:21;;;;;;;5.85;3.13;;;13.80;99.90;;;;;;5073198;28;20044;-81
2022/10/23 04:09:47;;;;;;;12.43;3.63;;;13.80;99.90;;;;;;5073195;28;20025;-80
2022/10/23 04:12:13;;;;;;;5.00;2.95;;;13.70;99.90;;;;;;5071945;28;20481;-80
2022/10/23 04:14:38;;;;;;;16.67;5.55;;;13.70;99.90;;;;;;5073485;28;20021;-81
2022/10/23 04:17:04;;;;;;;5.85;2.97;;;13.70;99.90;;;;;;5073600;28;20021;-81
2022/10/23 04:19:30;;;;;;;7.60;2.85;;;13.70;99.90;;;;;;5073263;28;20382;-81
2022/10/23 04:21:56;;;;;;;7.95;3.03;;;13.70;99.90;;;;;;5073198;28;20040;-80
2022/10/23 04:24:22;;;;;;;8.82;3.60;;;13.70;99.90;;;;;;5072792;28;20522;-80
2022/10/23 04:26:48;;;;;;;8.27;2.92;;;13.60;99.90;;;;;;5072765;28;20029;-82
2022/10/23 04:29:14;;;;;;;4.43;2.72;;;13.60;99.90;;;;;;5073179;28;20138;-81
2022/10/23 04:31:39;;;;;;;5.18;2.70;;;13.60;99.90;;;;;;5073037;28;20128;-81
2022/10/23 04:34:05;;;;;;;8.23;2.72;;;13.60;99.90;;;;;;5072613;28;20531;-79
2022/10/23 04:36:30;;;;;;;8.70;3.78;;;13.60;99.90;;;;;;5071599;28;20033;-81
2022/10/23 04:38:56;;;;;;;12.25;4.00;;;13.50;99.90;;;;;;5072890;28;20029;-81
2022/10/23 04:41:22;;;;;;;11.13;3.17;;;13.50;99.90;;;;;;5072903;28;20103;-82
2022/10/23 04:43:48;;;;;;;12.02;3.28;;;13.50;99.90;;;;;;5072681;28;20127;-82
2022/10/23 04:46:13;;;;;;;6.65;2.92;;;13.50;99.90;;;;;;5072425;28;20036;-80
2022/10/23 04:48:39;;;;;;;9.88;3.05;;;13.50;99.90;;;;;;5071365;28;20066;-81
2022/10/23 04:51:05;;;;;;;5.10;2.80;;;13.50;99.90;;;;;;5072560;28;20043;-80
2022/10/23 04:53:31;;;;;;;12.90;2.60;;;13.40;99.90;;;;;;5070961;28;20484;-81
2022/10/23 04:55:58;;;;;;;5.97;2.80;;;13.40;99.90;;;;;;5072030;28;20060;-80
2022/10/23 04:58:26;;;;;;;5.45;2.90;;;13.40;99.90;;;;;;5072538;28;20489;-81
2022/10/23 05:00:54;;;;;;;10.70;3.17;;;13.40;99.90;;;;;;5072229;28;20029;-80
2022/10/23 05:03:23;;;;;;;6.57;2.70;;;13.40;99.90;;;;;;5072193;28;20039;-80
2022/10/23 05:05:53;;;;;;;8.70;2.95;;;13.40;99.90;;;;;;5072229;28;20040;-78
2022/10/23 05:08:19;;;;;;;13.00;2.88;;;13.40;99.90;;;;;;5072945;28;20039;-81
2022/10/23 05:10:47;;;;;;;6.25;3.08;;;13.40;99.90;;;;;;5072025;28;20033;-83
2022/10/23 05:13:13;;;;;;;;;;;13.40;99.90;;;;;;5072404;28;20045;-80
2022/10/23 05:15:38;;;;;;;9.70;2.80;;;13.40;99.90;;;;;;5071874;28;19983;-82
2022/10/23 05:18:29;;;;;;;8.07;2.80;;;13.40;99.90;;;;;;5072058;28;20032;-79
2022/10/23 05:21:01;;;;;;;4.60;2.17;;;13.40;99.90;;;;;;5072039;28;20081;-80
2022/10/23 05:23:29;;;;;;;9.88;2.88;;;13.40;99.90;;;;;;5072108;28;20509;-79
2022/10/23 05:25:55;;;;;;;9.27;2.97;;;13.40;99.90;;;;;;5071731;28;20055;-79
2022/10/23 05:28:20;;;;;;;7.50;2.50;;;13.40;99.90;;;;;;5070499;28;20028;-80
2022/10/23 05:30:47;;;;;;;14.43;3.05;;;13.40;99.90;;;;;;5071863;28;20020;-79
2022/10/23 05:33:13;;;;;;;10.07;2.97;;;13.40;99.90;;;;;;5071589;28;20116;-79
2022/10/23 05:35:41;;;;;;;14.30;2.85;;;13.30;99.90;;;;;;5071471;28;20027;-80
2022/10/23 05:38:08;;;;;;;5.13;2.30;;;13.30;99.90;;;;;;5072071;28;20020;-81
2022/10/23 05:40:33;;;;;;;9.18;2.72;;;13.30;99.90;;;;;;5071420;28;20359;-81
2022/10/23 05:42:59;;;;;;;5.97;2.55;;;13.30;99.90;;;;;;5071357;28;20044;-81
2022/10/23 05:45:24;;;;;;;8.68;2.85;;;13.30;99.90;;;;;;5071411;28;20101;-79
2022/10/23 05:47:50;;;;;;;5.95;2.60;;;13.30;99.90;;;;;;5071503;28;20315;-81
2022/10/23 05:50:16;;;;;;;12.05;3.00;;;13.20;99.90;;;;;;5071746;28;20100;-80
2022/10/23 05:52:45;;;;;;;12.23;2.72;;;13.20;99.90;;;;;;5070275;28;20436;-81
2022/10/23 05:55:11;;;;;;;12.63;2.67;;;13.20;99.90;;;;;;5071403;28;20417;-81
2022/10/23 05:57:36;;;;;;;6.63;2.47;;;13.20;99.90;;;;;;5071710;28;20029;-80
2022/10/23 06:00:02;;;;;;;9.60;2.85;;;13.20;99.90;;;;;;5071710;28;20024;-83
2022/10/23 06:02:28;;;;;;;9.05;2.70;;;13.20;99.90;;;;;;5072005;28;20052;-80
2022/10/23 06:04:54;;;;;;;7.03;2.83;;;13.20;99.90;;;;;;5071188;28;20317;-80
2022/10/23 06:07:26;;;;;;;8.60;2.70;;;13.20;99.90;;;;;;5069737;28;20064;-80
2022/10/23 06:09:53;;;;;;;9.40;2.92;;;13.20;99.90;;;;;;5071329;28;20142;-82
2022/10/23 06:12:20;;;;;;;8.93;3.08;;;13.30;99.90;;;;;;5070866;28;20366;-81
2022/10/23 06:14:46;;;;;;;8.15;2.45;;;13.20;99.90;;;;;;5071214;28;20041;-83
2022/10/23 06:17:13;;;;;;;5.50;2.50;;;13.20;99.90;;;;;;5071393;28;20069;-82
2022/10/23 06:19:39;;;;;;;9.48;3.10;;;13.20;99.90;;;;;;5071120;28;20413;-82
2022/10/23 06:22:06;;;;;;;6.25;2.90;;;13.20;99.90;;;;;;5071063;28;20517;-84
2022/10/23 06:24:31;;;;;;;8.70;3.33;;;13.20;99.90;;;;;;5070636;28;20043;-80
2022/10/23 06:26:57;;;;;;;12.52;3.28;;;13.20;99.90;;;;;;5070662;28;20025;-84
2022/10/23 06:29:22;;;;;;;7.65;3.00;;;13.20;99.90;;;;;;5071135;28;20463;-81
2022/10/23 06:31:48;;;;;;;79.80;43.92;;;13.10;99.90;;;;;;5070709;28;20044;-81
2022/10/23 06:34:14;;;;;;;33.92;18.70;;;13.20;99.90;;;;;;5069538;28;20112;-80
2022/10/23 06:36:40;;;;;;;11.45;4.63;;;13.20;99.90;;;;;;5070917;28;20605;-78
2022/10/23 06:39:06;;;;;;;11.02;3.80;;;13.20;99.90;;;;;;5070473;28;20038;-79
2022/10/23 06:41:31;;;;;;;7.97;2.92;;;13.20;99.90;;;;;;5069421;28;20107;-81
2022/10/23 06:43:57;;;;;;;10.00;2.90;;;13.20;99.90;;;;;;5071160;28;20350;-82
2022/10/23 06:46:25;;;;;;;11.43;3.20;;;13.20;99.90;;;;;;5070911;28;20097;-84
2022/10/23 06:48:52;;;;;;;8.48;2.83;;;13.20;99.90;;;;;;5070238;28;20040;-83
2022/10/23 06:51:18;;;;;;;11.80;3.10;;;13.20;99.90;;;;;;5073153;28;20028;-82
2022/10/23 06:53:44;;;;;;;9.25;3.38;;;13.30;99.90;;;;;;5081865;28;20097;-80
2022/10/23 06:56:11;;;;;;;11.98;3.50;;;13.30;99.90;;;;;;5072379;28;20395;-81
2022/10/23 06:58:38;;;;;;;11.38;3.40;;;13.40;99.90;;;;;;5082381;28;20048;-81
2022/10/23 07:01:07;;;;;;;13.13;5.90;;;13.40;99.90;;;;;;5075473;28;20025;-81
2022/10/23 07:03:33;;;;;;;7.40;4.65;;;13.40;99.90;;;;;;5073603;28;20032;-83
2022/10/23 07:06:00;;;;;;;8.95;3.38;;;13.50;99.90;;;;;;5071212;28;20033;-81
2022/10/23 07:08:27;;;;;;;15.33;2.90;;;13.50;99.90;;;;;;5070088;28;20294;-81
2022/10/23 07:10:53;;;;;;;6.82;3.85;;;13.60;99.90;;;;;;5069508;28;20043;-81
2022/10/23 07:13:19;;;;;;;13.88;5.32;;;13.50;99.90;;;;;;5070552;28;20048;-81
2022/10/23 07:15:45;;;;;;;6.03;3.63;;;13.60;99.90;;;;;;5069075;28;20036;-81
2022/10/23 07:18:13;;;;;;;17.40;3.80;;;13.60;99.90;;;;;;5070817;28;20474;-81
2022/10/23 07:20:39;;;;;;;;;;;13.70;99.90;;;;;;5074740;28;20438;-80
2022/10/23 07:23:05;;;;;;;8.40;2.33;;;13.70;99.90;;;;;;5074920;28;19912;-81
2022/10/23 07:25:32;;;;;;;10.02;2.67;;;13.70;99.90;;;;;;5074159;28;20047;-82
2022/10/23 07:27:57;;;;;;;5.78;3.40;;;13.80;99.90;;;;;;5074253;28;20039;-80
2022/10/23 07:30:23;;;;;;;6.70;2.42;;;13.80;99.90;;;;;;5074128;28;20111;-82
2022/10/23 07:32:49;;;;;;;8.90;3.00;;;13.90;99.90;;;;;;5074343;28;20036;-80
2022/10/23 07:35:16;;;;;;;5.75;2.28;;;14.00;99.90;;;;;;5074233;28;20038;-83
2022/10/23 07:37:42;;;;;;;6.38;2.47;;;14.10;99.90;;;;;;5072935;28;20024;-81
2022/10/23 07:40:08;;;;;;;6.13;2.53;;;14.10;99.90;;;;;;5074331;28;20485;-79
2022/10/23 07:42:33;;;;;;;17.65;2.45;;;14.20;99.90;;;;;;5073776;28;20036;-78
2022/10/23 07:44:59;;;;;;;11.40;4.57;;;14.20;99.90;;;;;;5072831;28;20418;-79
2022/10/23 07:47:25;;;;;;;7.43;3.17;;;14.30;99.90;;;;;;5074078;28;20127;-77
2022/10/23 07:49:51;;;;;;;4.68;2.38;;;14.30;99.90;;;;;;5073730;28;20547;-78
2022/10/23 07:52:16;;;;;;;3.92;2.28;;;14.30;99.90;;;;;;5073576;28;20025;-80
2022/10/23 07:54:42;;;;;;;12.88;2.58;;;14.30;99.90;;;;;;5073638;28;20036;-80
2022/10/23 07:57:10;;;;;;;6.55;2.45;;;14.30;99.90;;;;;;5073598;28;20033;-80
2022/10/23 07:59:37;;;;;;;6.25;2.30;;;14.30;99.90;;;;;;5074022;28;20024;-80
2022/10/23 08:02:03;;;;;;;11.60;2.50;;;14.40;99.90;;;;;;5074114;28;20466;-79
2022/10/23 08:04:29;;;;;;;9.50;2.67;;;14.40;99.90;;;;;;5072342;28;20040;-77
2022/10/23 08:06:55;;;;;;;6.22;1.80;;;14.50;99.90;;;;;;5072405;28;20032;-78
2022/10/23 08:09:21;;;;;;;3.97;1.92;;;14.50;99.90;;;;;;5073509;28;20113;-78
2022/10/23 08:11:46;;;;;;;8.82;2.45;;;14.50;99.90;;;;;;5073129;28;20514;-79
2022/10/23 08:14:12;;;;;;;11.63;2.65;;;14.50;99.90;;;;;;5073667;28;20190;-80
2022/10/23 08:16:38;;;;;;;12.35;2.72;;;14.60;99.90;;;;;;5073682;28;20032;-79
2022/10/23 08:19:06;;;;;;;13.00;2.70;;;14.60;99.90;;;;;;5071965;28;20124;-77
2022/10/23 08:21:32;;;;;;;7.75;2.03;;;14.70;99.90;;;;;;5072009;28;20469;-78
2022/10/23 08:23:59;;;;;;;7.80;2.60;;;14.70;99.90;;;;;;5072999;28;20501;-79
2022/10/23 08:26:29;;;;;;;5.75;2.33;;;14.80;99.90;;;;;;5073457;28;20442;-78
2022/10/23 08:28:57;;;;;;;7.22;2.40;;;14.90;99.90;;;;;;5071951;28;20037;-77
2022/10/23 08:31:24;;;;;;;8.20;2.05;;;15.00;99.90;;;;;;5072413;28;20021;-77
2022/10/23 08:33:49;;;;;;;7.68;2.03;;;15.00;99.90;;;;;;5074431;28;20032;-80
2022/10/23 08:36:24;;;;;;;8.20;2.50;;;15.10;99.90;;;;;;5072890;28;20021;-79
2022/10/23 08:38:52;;;;;;;23.08;10.27;;;15.20;99.90;;;;;;5072762;28;20033;-77
2022/10/23 08:41:41;;;;;;;11.85;4.97;;;15.20;99.90;;;;;;5073107;28;20100;-79
2022/10/23 08:44:31;;;;;;;6.40;2.33;;;15.30;99.90;;;;;;5072647;28;20105;-79
2022/10/23 08:47:15;;;;;;;8.07;2.13;;;15.40;99.90;;;;;;5072708;28;20367;-80
2022/10/23 08:49:52;;;;;;;8.50;2.63;;;15.50;99.90;;;;;;5073866;28;20029;-81
2022/10/23 08:52:26;;;;;;;8.90;2.33;;;15.60;99.90;;;;;;5073554;28;20409;-81
2022/10/23 08:55:16;;;;;;;6.80;1.85;;;15.70;99.90;;;;;;5072822;28;20185;-81
2022/10/23 08:57:51;;;;;;;8.50;2.00;;;15.80;99.90;;;;;;5072571;28;20044;-80
2022/10/23 09:00:17;;;;;;;7.57;1.90;;;15.90;99.90;;;;;;5072514;28;20058;-80
2022/10/23 09:02:52;;;;;;;6.53;1.90;;;16.00;99.90;;;;;;5072463;28;20064;-80
2022/10/23 09:05:29;;;;;;;4.97;2.17;;;16.10;99.90;;;;;;5071618;28;20025;-79
2022/10/23 09:08:29;;;;;;;11.13;2.53;;;16.20;99.90;;;;;;5072574;28;20064;-81
2022/10/23 09:11:03;;;;;;;9.55;1.70;;;16.20;99.90;;;;;;5072683;28;20113;-81
2022/10/23 09:13:51;;;;;;;5.85;1.95;;;16.40;99.90;;;;;;5072078;28;20145;-81
2022/10/23 09:16:34;;;;;;;7.78;2.10;;;16.50;99.90;;;;;;5072402;28;20056;-80
2022/10/23 09:19:01;;;;;;;7.75;1.77;;;16.60;99.90;;;;;;5071073;28;20033;-80
2022/10/23 09:21:28;;;;;;;7.13;1.70;;;16.70;99.90;;;;;;5072271;28;20048;-80
2022/10/23 09:23:54;;;;;;;7.50;2.35;;;16.80;99.90;;;;;;5070967;28;20040;-82
2022/10/23 09:26:20;;;;;;;12.00;2.10;;;17.00;99.90;;;;;;5072246;28;20435;-82
2022/10/23 09:28:47;;;;;;;4.82;1.30;;;17.10;99.90;;;;;;5072163;28;20039;-80
2022/10/23 09:31:14;;;;;;;4.07;1.50;;;17.10;99.90;;;;;;5071923;28;20035;-78
2022/10/23 09:33:41;;;;;;;8.68;1.98;;;17.30;99.90;;;;;;5070523;28;20029;-80
2022/10/23 09:36:18;;;;;;;8.07;3.42;;;17.40;99.90;;;;;;5070718;28;20470;-78
2022/10/23 09:38:46;;;;;;;3.33;1.88;;;17.70;99.90;;;;;;5072084;28;20103;-80
2022/10/23 09:41:36;;;;;;;5.03;1.45;;;17.90;99.90;;;;;;5071820;28;20028;-80
2022/10/23 09:44:29;;;;;;;4.57;1.70;;;17.90;99.90;;;;;;5071624;28;20511;-80
2022/10/23 09:47:00;;;;;;;5.97;1.33;;;18.00;99.90;;;;;;5071041;28;20053;-77
2022/10/23 09:49:28;;;;;;;12.05;4.13;;;18.10;99.90;;;;;;5071693;28;20028;-81
2022/10/23 09:52:20;;;;;;;11.00;3.53;;;18.00;99.90;;;;;;5070800;28;20433;-84
2022/10/23 09:54:49;;;;;;;8.77;2.45;;;18.00;99.90;;;;;;5071445;28;20032;-81
2022/10/23 09:57:27;;;;;;;9.07;1.67;;;17.90;99.90;;;;;;5070328;28;20037;-81
2022/10/23 09:59:56;;;;;;;13.95;1.80;;;17.90;99.90;;;;;;5071808;28;20117;-79
2022/10/23 10:02:31;;;;;;;5.75;1.52;;;17.90;99.90;;;;;;5071973;28;20017;-76
2022/10/23 10:04:57;;;;;;;4.95;1.38;;;17.90;99.90;;;;;;5070002;28;20440;-74
2022/10/23 10:07:29;;;;;;;3.75;1.33;;;17.80;99.90;;;;;;5070926;28;20090;-74
2022/10/23 10:09:56;;;;;;;5.35;1.80;;;17.90;99.90;;;;;;5070977;28;20051;-75
2022/10/23 10:12:34;;;;;;;7.95;1.60;;;17.90;99.90;;;;;;5070877;28;20045;-74
2022/10/23 10:15:31;;;;;;;8.05;3.20;;;17.80;99.90;;;;;;5070888;28;20116;-73
2022/10/23 10:18:27;;;;;;;5.75;1.67;;;17.80;99.90;;;;;;5070639;28;20119;-75
2022/10/23 10:21:11;;;;;;;5.63;1.40;;;17.80;99.90;;;;;;5070772;28;20028;-73
2022/10/23 10:23:49;;;;;;;3.00;1.55;;;17.90;99.90;;;;;;5070651;28;20036;-72
2022/10/23 10:26:45;;;;;;;5.18;1.50;;;17.90;99.90;;;;;;5069974;28;20474;-73
2022/10/23 10:29:28;;;;;;;8.13;1.90;;;17.90;99.90;;;;;;5070912;28;20101;-73
2022/10/23 10:32:34;;;;;;;2.95;1.52;;;17.90;99.90;;;;;;5070806;28;20528;-73
2022/10/23 10:35:19;;;;;;;6.88;2.10;;;17.90;99.90;;;;;;5058801;28;20060;-76
2022/10/23 10:37:45;;;;;;;14.57;5.13;;;17.80;99.90;;;;;;5070687;28;20040;-73
2022/10/23 10:40:24;;;;;;;4.60;2.42;;;17.90;99.90;;;;;;5070766;28;20029;-73
2022/10/23 10:43:15;;;;;;;4.28;1.33;;;17.90;99.90;;;;;;5070610;28;20115;-74
2022/10/23 10:45:46;;;;;;;6.18;1.65;;;18.00;99.90;;;;;;5070573;28;20498;-73
2022/10/23 10:48:30;;;;;;;4.57;1.10;;;18.10;99.90;;;;;;5070694;28;20067;-75
2022/10/23 10:51:02;;;;;;;4.82;1.75;;;18.30;99.90;;;;;;5070189;28;20418;-73
2022/10/23 10:54:12;;;;;;;9.05;1.52;;;18.30;99.90;;;;;;5069787;28;20025;-74
2022/10/23 10:56:41;;;;;;;4.50;1.23;;;18.50;99.90;;;;;;5070414;28;20114;-76
2022/10/23 10:59:16;;;;;;;5.32;1.02;;;18.70;99.90;;;;;;5070903;28;20052;-72
2022/10/23 11:01:49;;;;;;;2.03;1.10;;;18.80;99.90;;;;;;5071050;28;20032;-78
2022/10/23 11:04:33;;;;;;;3.05;0.90;;;18.90;99.90;;;;;;5071346;28;20033;-79
2022/10/23 11:07:07;;;;;;;3.72;1.50;;;18.90;99.90;;;;;;5075546;28;20033;-84
2022/10/23 11:09:32;;;;;;;3.47;1.23;;;18.90;99.90;;;;;;5075602;28;20043;-79
2022/10/23 11:11:58;;;;;;;5.60;1.52;;;19.10;99.90;;;;;;5070638;28;20194;-79
2022/10/23 11:14:27;;;;;;;4.55;1.83;;;19.30;99.90;;;;;;5070747;28;20056;-78
2022/10/23 11:17:13;;;;;;;1.73;1.00;;;19.50;99.50;;;;;;5070582;28;20076;-81
2022/10/23 11:19:57;;;;;;;5.10;1.20;;;19.50;99.40;;;;;;5069272;28;20115;-79
2022/10/23 11:22:41;;;;;;;4.65;1.42;;;19.50;99.20;;;;;;5069017;28;20035;-77
2022/10/23 11:25:43;;;;;;;4.82;1.25;;;19.50;99.00;;;;;;5070205;28;20032;-75
2022/10/23 11:28:36;;;;;;;6.38;1.25;;;19.70;99.00;;;;;;5068864;28;20025;-77
2022/10/23 11:31:20;;;;;;;3.28;1.20;;;19.80;98.70;;;;;;5069950;28;20037;-74
2022/10/23 11:34:19;;;;;;;8.57;2.80;;;19.90;99.40;;;;;;5068671;28;20036;-76
2022/10/23 11:36:53;;;;;;;8.38;1.95;;;19.90;98.50;;;;;;5069017;28;20071;-76
2022/10/23 11:39:26;;;;;;;6.15;1.27;;;19.90;98.30;;;;;;5070247;28;20063;-75
2022/10/23 11:42:13;;;;;;;4.93;1.17;;;19.70;97.80;;;;;;5070107;28;20094;-76
2022/10/23 11:44:49;;;;;;;2.13;1.00;;;19.60;98.20;;;;;;5070042;28;20021;-75
2022/10/23 11:47:29;;;;;;;3.97;0.90;;;19.70;98.60;;;;;;5070515;28;20044;-75
2022/10/23 11:50:06;;;;;;;6.07;1.17;;;19.60;98.30;;;;;;5069878;28;20458;-74
2022/10/23 11:52:38;;;;;;;2.67;1.33;;;19.70;98.30;;;;;;5070033;28;20474;-74
2022/10/23 11:55:31;;;;;;;3.58;1.50;;;19.70;98.20;;;;;;5069964;28;20070;-73
2022/10/23 11:58:09;;;;;;;3.83;1.20;;;19.70;98.30;;;;;;5068619;28;20414;-74
2022/10/23 12:00:48;;;;;;;3.20;1.50;;;19.80;98.20;;;;;;5069790;28;20036;-75
2022/10/23 12:03:22;;;;;;;6.18;1.30;;;19.70;97.80;;;;;;5068755;28;20041;-80
2022/10/23 12:05:57;;;;;;;2.75;0.90;;;19.90;98.30;;;;;;5072563;28;20123;-75
2022/10/23 12:08:27;;;;;;;3.92;1.23;;;20.00;98.30;;;;;;5074900;28;20055;-77
2022/10/23 12:10:54;;;;;;;4.80;1.42;;;20.00;97.20;;;;;;5073938;28;20028;-79
2022/10/23 12:13:37;;;;;;;3.83;1.00;;;20.10;97.60;;;;;;5074563;28;20065;-76
2022/10/23 12:16:08;;;;;;;6.43;1.10;;;20.20;97.80;;;;;;5072939;28;20028;-74
2022/10/23 12:18:46;;;;;;;4.05;1.13;;;20.30;97.70;;;;;;5074471;28;20037;-75
2022/10/23 12:21:20;;;;;;;4.45;1.00;;;20.30;97.50;;;;;;5074018;28;20550;-74
2022/10/23 12:24:04;;;;;;;2.85;1.10;;;20.40;97.40;;;;;;5073656;28;20056;-77
2022/10/23 12:26:56;;;;;;;2.30;0.93;;;20.40;97.20;;;;;;5073115;28;20102;-76
2022/10/23 12:29:33;;;;;;;3.42;1.50;;;20.50;97.40;;;;;;5074442;28;20021;-75
2022/10/23 12:32:24;;;;;;;3.95;1.13;;;20.50;96.90;;;;;;5073073;28;20422;-74
2022/10/23 12:35:09;;;;;;;2.70;1.00;;;20.50;96.90;;;;;;5074424;28;20079;-74
2022/10/23 12:37:55;;;;;;;3.03;1.02;;;20.40;97.20;;;;;;5074787;28;20020;-75
2022/10/23 12:40:28;;;;;;;5.28;0.90;;;20.40;97.10;;;;;;5073381;28;20047;-74
2022/10/23 12:42:56;;;;;;;3.88;1.30;;;20.30;96.90;;;;;;5074313;28;20079;-76
2022/10/23 12:45:23;;;;;;;;;;;20.30;96.70;;;;;;5073818;28;20033;-77
2022/10/23 12:47:50;;;;;;;6.20;1.20;;;20.20;97.00;;;;;;5073256;28;20004;-75
2022/10/23 12:50:19;;;;;;;5.00;1.70;;;20.20;97.10;;;;;;5074261;28;20017;-73
2022/10/23 12:52:53;;;;;;;4.47;1.05;;;20.20;97.10;;;;;;5073704;28;20040;-77
2022/10/23 12:55:20;;;;;;;2.65;1.10;;;20.10;97.20;;;;;;5073713;28;20036;-75
2022/10/23 12:57:46;;;;;;;6.10;1.63;;;20.10;97.30;;;;;;5072689;28;20032;-77
2022/10/23 13:00:17;;;;;;;7.28;1.20;;;20.00;97.50;;;;;;5074773;28;20048;-78
2022/10/23 13:02:43;;;;;;;3.92;1.00;;;20.00;97.60;;;;;;5072216;28;20024;-75
2022/10/23 13:05:17;;;;;;;2.75;0.85;;;19.90;97.50;;;;;;5073914;28;20039;-75
2022/10/23 13:07:45;;;;;;;7.05;1.33;;;19.90;97.60;;;;;;5072668;28;20028;-74
2022/10/23 13:10:18;;;;;;;3.47;1.05;;;19.80;97.70;;;;;;5073207;28;20025;-79